createdAt,value
2022-11-19T00:01:31.777Z,1.65
2022-11-19T00:03:58.248Z,1.67
2022-11-19T00:06:26.794Z,1.78
2022-11-19T00:08:53.830Z,1.65
2022-11-19T00:11:41.167Z,1.71
2022-11-19T00:14:10.043Z,1.79
2022-11-19T00:16:36.194Z,1.63
2022-11-19T00:19:03.180Z,1.64
2022-11-19T00:21:29.253Z,1.56
2022-11-19T00:23:56.487Z,1.44
2022-11-19T00:26:23.077Z,1.59
2022-11-19T00:28:49.586Z,1.35
2022-11-19T00:31:16.396Z,1.31
2022-11-19T00:33:44.450Z,1.16
2022-11-19T00:36:13.165Z,1.08
2022-11-19T00:38:39.585Z,1.19
2022-11-19T00:41:06.323Z,1.26
2022-11-19T00:43:49.395Z,1.15
2022-11-19T00:46:19.582Z,1.30
2022-11-19T00:48:47.906Z,1.19
2022-11-19T00:51:15.217Z,1.21
2022-11-19T00:53:41.647Z,1.16
2022-11-19T00:56:10.906Z,1.19
2022-11-19T00:58:37.623Z,1.14
2022-11-19T01:01:04.616Z,1.19
2022-11-19T01:03:31.969Z,1.22
2022-11-19T01:05:58.269Z,1.13
2022-11-19T01:08:24.660Z,1.09
2022-11-19T01:10:50.838Z,1.04
2022-11-19T01:13:35.270Z,1.05
2022-11-19T01:16:04.792Z,1.02
2022-11-19T01:18:31.952Z,1.04
2022-11-19T01:20:58.111Z,1.07
2022-11-19T01:23:24.518Z,1.24
2022-11-19T01:25:50.691Z,1.04
2022-11-19T01:28:17.299Z,0.99
2022-11-19T01:30:43.688Z,0.78
2022-11-19T01:33:10.109Z,0.91
2022-11-19T01:35:36.643Z,0.92
2022-11-19T01:38:04.706Z,0.87
2022-11-19T01:40:31.773Z,0.86
2022-11-19T01:42:58.141Z,0.95
2022-11-19T01:45:36.049Z,0.89
2022-11-19T01:48:25.604Z,0.70
2022-11-19T01:50:56.545Z,0.68
2022-11-19T01:53:28.837Z,0.53
2022-11-19T01:55:58.843Z,0.40
2022-11-19T01:58:25.496Z,0.03
2022-11-19T02:00:51.591Z,0.32
2022-11-19T02:03:18.745Z,0.37
2022-11-19T02:05:46.547Z,0.41
2022-11-19T02:08:42.364Z,0.13
2022-11-19T02:11:33.615Z,0.02
2022-11-19T02:14:12.055Z,-0.28
2022-11-19T02:17:19.662Z,-0.49
2022-11-19T02:20:07.187Z,-0.46
2022-11-19T02:22:50.985Z,-0.59
2022-11-19T02:26:14.449Z,-0.31
2022-11-19T02:28:45.958Z,-0.45
2022-11-19T02:31:38.723Z,-0.61
2022-11-19T02:34:13.582Z,-0.81
2022-11-19T02:37:04.455Z,-0.91
2022-11-19T02:39:45.806Z,-1.03
2022-11-19T02:42:17.612Z,-1.05
2022-11-19T02:45:21.989Z,-1.02
2022-11-19T02:47:55.899Z,-0.73
2022-11-19T02:50:34.972Z,-1.03
2022-11-19T02:53:03.758Z,-1.09
2022-11-19T02:55:30.762Z,-1.13
2022-11-19T02:58:05.894Z,-1.16
2022-11-19T03:01:00.872Z,-1.10
2022-11-19T03:03:47.066Z,-1.25
2022-11-19T03:06:33.969Z,-1.22
2022-11-19T03:09:01.645Z,-1.28
2022-11-19T03:11:30.023Z,-1.07
2022-11-19T03:14:40.187Z,-1.08
2022-11-19T03:17:20.822Z,-1.21
2022-11-19T03:20:00.580Z,-1.25
2022-11-19T03:22:26.672Z,-1.45
2022-11-19T03:25:04.684Z,-1.60
2022-11-19T03:27:37.935Z,-1.53
2022-11-19T03:30:05.266Z,-1.56
2022-11-19T03:32:43.629Z,-1.08
2022-11-19T03:35:18.706Z,-0.99
2022-11-19T03:37:50.060Z,-1.29
2022-11-19T03:40:18.773Z,-1.28
2022-11-19T03:42:50.492Z,-1.48
2022-11-19T03:45:23.147Z,-1.49
2022-11-19T03:47:51.500Z,-1.45
2022-11-19T03:50:27.007Z,-1.49
2022-11-19T03:52:53.647Z,-1.43
2022-11-19T03:55:30.448Z,-1.34
2022-11-19T03:58:08.733Z,-1.44
2022-11-19T04:00:35.117Z,-1.46
2022-11-19T04:03:01.496Z,-1.15
2022-11-19T04:05:28.133Z,-0.88
2022-11-19T04:07:54.279Z,-0.86
2022-11-19T04:10:20.928Z,-0.90
2022-11-19T04:12:47.189Z,-0.99
2022-11-19T04:15:14.748Z,-0.90
2022-11-19T04:17:41.038Z,-0.84
2022-11-19T04:20:08.624Z,-1.15
2022-11-19T04:22:34.738Z,-1.21
2022-11-19T04:25:01.307Z,-1.61
2022-11-19T04:27:27.368Z,-1.62
2022-11-19T04:29:53.747Z,-1.66
2022-11-19T04:32:19.828Z,-1.48
2022-11-19T04:34:46.209Z,-1.62
2022-11-19T04:37:12.380Z,-1.75
2022-11-19T04:39:38.745Z,-1.81
2022-11-19T04:42:04.828Z,-1.63
2022-11-19T04:44:32.280Z,-1.23
2022-11-19T04:46:59.079Z,-1.53
2022-11-19T04:49:25.983Z,-1.68
2022-11-19T04:51:52.263Z,-1.82
2022-11-19T04:54:18.585Z,-1.94
2022-11-19T04:56:44.665Z,-1.93
2022-11-19T04:59:11.034Z,-2.05
2022-11-19T05:01:37.129Z,-1.96
2022-11-19T05:04:03.772Z,-1.82
2022-11-19T05:06:29.869Z,-1.40
2022-11-19T05:08:56.275Z,-1.54
2022-11-19T05:11:22.391Z,-1.67
2022-11-19T05:13:48.731Z,-1.84
2022-11-19T05:16:15.026Z,-1.85
2022-11-19T05:18:41.436Z,-1.95
2022-11-19T05:21:07.564Z,-2.14
2022-11-19T05:23:33.942Z,-2.21
2022-11-19T05:25:59.993Z,-2.22
2022-11-19T05:28:37.885Z,-2.15
2022-11-19T05:31:05.191Z,-2.23
2022-11-19T05:33:34.329Z,-2.29
2022-11-19T05:36:01.696Z,-2.45
2022-11-19T05:38:28.141Z,-2.52
2022-11-19T05:40:54.354Z,-2.61
2022-11-19T05:43:20.763Z,-2.73
2022-11-19T05:45:46.860Z,-2.69
2022-11-19T05:48:13.531Z,-2.80
2022-11-19T05:50:41.720Z,-2.75
2022-11-19T05:53:08.614Z,-2.63
2022-11-19T05:55:35.649Z,-2.33
2022-11-19T05:58:02.018Z,-2.44
2022-11-19T06:00:28.496Z,-2.45
2022-11-19T06:02:54.960Z,-2.61
2022-11-19T06:05:21.145Z,-2.64
2022-11-19T06:07:47.516Z,-2.76
2022-11-19T06:10:13.661Z,-2.75
2022-11-19T06:12:45.537Z,-2.70
2022-11-19T06:15:13.408Z,-2.44
2022-11-19T06:17:40.256Z,-2.36
2022-11-19T06:20:10.108Z,-2.52
2022-11-19T06:22:37.230Z,-2.55
2022-11-19T06:25:04.388Z,-2.50
2022-11-19T06:27:31.055Z,-2.49
2022-11-19T06:29:57.655Z,-2.09
2022-11-19T06:32:24.492Z,-1.88
2022-11-19T06:34:51.082Z,-2.05
2022-11-19T06:37:19.042Z,-1.82
2022-11-19T06:39:45.512Z,-1.73
2022-11-19T06:42:31.428Z,-1.35
2022-11-19T06:44:57.706Z,-1.22
2022-11-19T06:47:24.163Z,-1.58
2022-11-19T06:49:50.770Z,-1.79
2022-11-19T06:52:17.323Z,-2.13
2022-11-19T06:54:43.714Z,-2.16
2022-11-19T06:57:10.516Z,-2.02
2022-11-19T06:59:38.287Z,-2.05
2022-11-19T07:02:05.660Z,-2.04
2022-11-19T07:04:32.078Z,-2.01
2022-11-19T07:06:58.758Z,-2.06
2022-11-19T07:09:25.060Z,-1.82
2022-11-19T07:11:51.659Z,-1.86
2022-11-19T07:14:18.059Z,-1.78
2022-11-19T07:16:44.482Z,-1.70
2022-11-19T07:19:10.591Z,-1.60
2022-11-19T07:21:37.230Z,-1.58
2022-11-19T07:24:05.945Z,-1.37
2022-11-19T07:26:33.597Z,-1.33
2022-11-19T07:29:05.566Z,-1.21
2022-11-19T07:31:32.711Z,-1.11
2022-11-19T07:33:59.062Z,-0.97
2022-11-19T07:36:25.820Z,-0.73
2022-11-19T07:38:51.998Z,-0.61
2022-11-19T07:41:37.818Z,-0.54
2022-11-19T07:44:04.281Z,-0.38
2022-11-19T07:46:31.270Z,-0.28
2022-11-19T07:49:01.545Z,-0.18
2022-11-19T07:51:32.392Z,-0.02
2022-11-19T07:54:00.463Z,0.06
2022-11-19T07:56:27.352Z,0.15
2022-11-19T07:58:53.640Z,0.27
2022-11-19T08:01:23.415Z,0.38
2022-11-19T08:03:56.073Z,0.57
2022-11-19T08:06:27.804Z,0.55
2022-11-19T08:08:58.313Z,0.57
2022-11-19T08:11:24.929Z,0.62
2022-11-19T08:13:52.495Z,0.76
2022-11-19T08:16:40.056Z,0.59
2022-11-19T08:19:10.040Z,0.75
2022-11-19T08:21:40.463Z,0.76
2022-11-19T08:24:08.208Z,0.85
2022-11-19T08:26:35.228Z,0.85
2022-11-19T08:29:01.529Z,1.05
2022-11-19T08:31:28.120Z,1.20
2022-11-19T08:33:54.319Z,1.23
2022-11-19T08:36:20.767Z,1.26
2022-11-19T08:38:47.129Z,1.42
2022-11-19T08:41:32.247Z,1.41
2022-11-19T08:44:00.664Z,1.47
2022-11-19T08:46:27.256Z,1.55
2022-11-19T08:48:53.443Z,1.64
2022-11-19T08:51:19.896Z,1.74
2022-11-19T08:53:46.210Z,1.70
2022-11-19T08:56:16.862Z,1.72
2022-11-19T08:58:44.585Z,1.86
2022-11-19T09:01:13.639Z,1.91
2022-11-19T09:03:40.342Z,1.93
2022-11-19T09:06:07.838Z,1.95
2022-11-19T09:08:34.919Z,2.08
2022-11-19T09:11:13.952Z,2.01
2022-11-19T09:13:42.657Z,2.03
2022-11-19T09:16:10.576Z,2.12
2022-11-19T09:18:41.292Z,2.14
2022-11-19T09:21:10.310Z,2.10
2022-11-19T09:23:36.811Z,2.11
2022-11-19T09:26:09.057Z,2.13
2022-11-19T09:28:35.690Z,2.01
2022-11-19T09:31:02.362Z,2.01
2022-11-19T09:33:30.139Z,2.02
2022-11-19T09:35:57.753Z,2.15
2022-11-19T09:38:24.625Z,2.06
2022-11-19T09:40:53.183Z,2.01
2022-11-19T09:43:38.033Z,2.12
2022-11-19T09:46:19.016Z,2.23
2022-11-19T09:48:45.756Z,2.27
2022-11-19T09:51:15.337Z,2.20
2022-11-19T09:53:50.755Z,2.21
2022-11-19T09:56:25.502Z,2.40
2022-11-19T09:58:54.655Z,2.49
2022-11-19T10:01:21.088Z,2.58
2022-11-19T10:03:49.781Z,2.67
2022-11-19T10:06:27.124Z,2.70
2022-11-19T10:09:04.693Z,2.67
2022-11-19T10:12:03.772Z,2.66
2022-11-19T10:14:42.300Z,2.85
2022-11-19T10:17:19.310Z,2.96
2022-11-19T10:20:25.215Z,3.02
2022-11-19T10:22:57.668Z,3.07
2022-11-19T10:25:42.135Z,3.10
2022-11-19T10:28:14.991Z,3.08
2022-11-19T10:30:53.837Z,3.21
2022-11-19T10:33:26.271Z,3.01
2022-11-19T10:36:02.823Z,3.14
2022-11-19T10:38:35.680Z,3.21
2022-11-19T10:41:20.917Z,3.26
2022-11-19T10:43:59.514Z,3.24
2022-11-19T10:46:27.931Z,3.33
2022-11-19T10:48:57.664Z,3.40
2022-11-19T10:51:30.116Z,3.34
2022-11-19T10:53:57.190Z,3.39
2022-11-19T10:56:38.252Z,3.36
2022-11-19T10:59:13.452Z,3.35
2022-11-19T11:01:43.886Z,3.28
2022-11-19T11:04:13.595Z,3.34
2022-11-19T11:06:50.614Z,3.61
2022-11-19T11:09:31.496Z,3.45
2022-11-19T11:12:20.772Z,3.36
2022-11-19T11:14:53.693Z,3.40
2022-11-19T11:17:31.466Z,3.31
2022-11-19T11:20:03.478Z,3.41
2022-11-19T11:22:30.808Z,3.43
2022-11-19T11:25:05.729Z,3.42
2022-11-19T11:27:34.754Z,3.31
2022-11-19T11:30:16.727Z,3.33
2022-11-19T11:32:43.481Z,3.38
2022-11-19T11:35:35.389Z,3.48
2022-11-19T11:38:04.754Z,3.56
2022-11-19T11:40:31.373Z,3.71
2022-11-19T11:42:57.907Z,3.76
2022-11-19T11:45:32.555Z,4.02
2022-11-19T11:48:06.726Z,4.23
2022-11-19T11:50:36.375Z,4.42
2022-11-19T11:53:08.955Z,4.53
2022-11-19T11:55:37.979Z,4.47
2022-11-19T11:58:22.666Z,4.54
2022-11-19T12:00:52.363Z,4.55
2022-11-19T12:03:19.407Z,4.47
2022-11-19T12:05:49.397Z,4.35
2022-11-19T12:08:27.035Z,4.32
2022-11-19T12:10:56.987Z,4.12
2022-11-19T12:13:48.601Z,4.15
2022-11-19T12:16:37.539Z,4.12
2022-11-19T12:19:20.345Z,4.06
2022-11-19T12:21:49.570Z,4.03
2022-11-19T12:24:34.049Z,4.03
2022-11-19T12:27:06.468Z,4.04
2022-11-19T12:29:58.024Z,3.87
2022-11-19T12:32:33.973Z,3.87
2022-11-19T12:35:33.988Z,3.93
2022-11-19T12:38:17.170Z,3.74
2022-11-19T12:41:12.756Z,3.55
2022-11-19T12:43:58.869Z,3.71
2022-11-19T12:46:45.054Z,3.54
2022-11-19T12:49:41.448Z,3.52
2022-11-19T12:52:16.897Z,3.48
2022-11-19T12:54:56.951Z,3.36
2022-11-19T12:57:38.547Z,3.19
2022-11-19T13:00:11.094Z,3.06
2022-11-19T13:02:51.456Z,3.06
2022-11-19T13:05:19.723Z,3.19
2022-11-19T13:08:09.452Z,3.17
2022-11-19T13:10:41.592Z,3.23
2022-11-19T13:13:13.669Z,3.10
2022-11-19T13:15:47.786Z,2.95
2022-11-19T13:18:16.904Z,2.86
2022-11-19T13:20:51.123Z,2.71
2022-11-19T13:23:40.130Z,2.43
2022-11-19T13:26:12.755Z,2.14
2022-11-19T13:28:48.178Z,2.16
2022-11-19T13:31:40.772Z,2.05
2022-11-19T13:34:26.240Z,1.93
2022-11-19T13:37:14.274Z,1.84
2022-11-19T13:40:18.980Z,1.83
2022-11-19T13:43:30.596Z,1.86
2022-11-19T13:46:04.087Z,1.97
2022-11-19T13:48:36.387Z,1.88
2022-11-19T13:51:09.122Z,1.89
2022-11-19T13:53:44.349Z,1.89
2022-11-19T13:56:16.614Z,1.87
2022-11-19T13:58:49.977Z,1.65
2022-11-19T14:01:35.003Z,1.70
2022-11-19T14:04:36.694Z,1.88
2022-11-19T14:07:40.194Z,1.81
2022-11-19T14:10:24.708Z,1.74
2022-11-19T14:12:56.633Z,1.81
2022-11-19T14:15:51.271Z,1.92
2022-11-19T14:18:53.066Z,1.93
2022-11-19T14:21:42.581Z,2.06
2022-11-19T14:24:42.595Z,2.11
2022-11-19T14:27:25.541Z,2.11
2022-11-19T14:30:16.018Z,2.25
2022-11-19T14:32:51.255Z,2.24
2022-11-19T14:35:26.706Z,2.33
2022-11-19T14:37:57.214Z,2.38
2022-11-19T14:40:30.887Z,2.27
2022-11-19T14:43:18.990Z,2.24
2022-11-19T14:46:00.350Z,2.28
2022-11-19T14:48:29.212Z,2.20
2022-11-19T14:51:01.258Z,2.31
2022-11-19T14:53:27.732Z,2.36
2022-11-19T14:55:53.898Z,2.35
2022-11-19T14:58:23.531Z,2.30
2022-11-19T15:01:04.846Z,2.35
2022-11-19T15:03:31.690Z,2.33
2022-11-19T15:06:04.471Z,2.36
2022-11-19T15:08:48.852Z,2.38
2022-11-19T15:11:16.479Z,2.42
2022-11-19T15:13:45.406Z,2.34
2022-11-19T15:16:25.806Z,2.29
2022-11-19T15:18:55.007Z,2.30
2022-11-19T15:21:39.143Z,2.35
2022-11-19T15:24:23.260Z,2.33
2022-11-19T15:27:30.577Z,2.35
2022-11-19T15:30:06.492Z,2.23
2022-11-19T15:33:07.027Z,2.39
2022-11-19T15:35:51.526Z,2.34
2022-11-19T15:38:24.219Z,2.34
2022-11-19T15:40:54.330Z,2.30
2022-11-19T15:43:29.933Z,2.31
2022-11-19T15:46:04.299Z,2.28
2022-11-19T15:48:40.894Z,2.32
2022-11-19T15:51:13.867Z,2.28
2022-11-19T15:53:57.755Z,2.35
2022-11-19T15:56:26.923Z,2.33
2022-11-19T15:58:53.379Z,2.30
2022-11-19T16:01:21.404Z,2.29
2022-11-19T16:03:51.086Z,2.30
2022-11-19T16:06:28.887Z,2.38
2022-11-19T16:08:59.714Z,2.41
2022-11-19T16:11:47.878Z,2.60
2022-11-19T16:14:45.345Z,2.56
2022-11-19T16:17:32.372Z,2.40
2022-11-19T16:20:21.579Z,2.58
2022-11-19T16:22:54.228Z,2.56
2022-11-19T16:25:30.017Z,2.57
2022-11-19T16:27:59.604Z,2.60
2022-11-19T16:30:29.195Z,2.61
2022-11-19T16:32:59.352Z,2.67
2022-11-19T16:35:30.890Z,2.72
2022-11-19T16:38:00.137Z,2.64
2022-11-19T16:40:47.503Z,2.52
2022-11-19T16:43:14.524Z,2.53
2022-11-19T16:45:46.237Z,2.47
2022-11-19T16:48:52.450Z,2.48
2022-11-19T16:51:34.108Z,2.49
2022-11-19T16:54:02.942Z,2.59
2022-11-19T16:56:42.240Z,2.52
2022-11-19T16:59:17.651Z,2.53
2022-11-19T17:01:51.493Z,2.59
2022-11-19T17:04:18.738Z,2.60
2022-11-19T17:07:12.110Z,2.51
2022-11-19T17:09:43.174Z,2.62
2022-11-19T17:12:55.646Z,2.64
2022-11-19T17:15:38.003Z,2.66
2022-11-19T17:18:33.803Z,2.69
2022-11-19T17:21:04.400Z,2.60
2022-11-19T17:23:33.731Z,2.60
2022-11-19T17:26:04.004Z,2.61
2022-11-19T17:28:37.381Z,2.65
2022-11-19T17:31:14.245Z,2.63
2022-11-19T17:34:14.389Z,2.65
2022-11-19T17:36:41.826Z,2.60
2022-11-19T17:39:12.772Z,2.75
2022-11-19T17:41:58.824Z,2.63
2022-11-19T17:44:38.407Z,2.63
2022-11-19T17:47:22.239Z,2.62
2022-11-19T17:49:49.596Z,2.65
2022-11-19T17:52:27.639Z,2.67
2022-11-19T17:55:03.582Z,2.67
2022-11-19T17:57:30.599Z,2.69
2022-11-19T17:59:56.865Z,2.61
2022-11-19T18:02:23.838Z,2.54
2022-11-19T18:04:51.405Z,2.65
2022-11-19T18:07:18.101Z,2.53
2022-11-19T18:09:44.617Z,2.54
2022-11-19T18:12:17.264Z,2.40
2022-11-19T18:14:44.537Z,2.41
2022-11-19T18:17:14.061Z,2.39
2022-11-19T18:19:41.241Z,2.38
2022-11-19T18:22:17.602Z,2.35
2022-11-19T18:24:49.283Z,2.42
2022-11-19T18:27:16.545Z,2.42
2022-11-19T18:29:42.940Z,2.32
2022-11-19T18:32:16.135Z,2.40
2022-11-19T18:34:44.039Z,2.41
2022-11-19T18:37:10.971Z,2.36
2022-11-19T18:39:37.506Z,2.42
2022-11-19T18:42:04.113Z,2.53
2022-11-19T18:44:37.782Z,2.53
2022-11-19T18:47:09.358Z,2.58
2022-11-19T18:49:36.269Z,2.62
2022-11-19T18:52:06.415Z,2.57
2022-11-19T18:54:36.364Z,2.62
2022-11-19T18:57:03.460Z,2.55
2022-11-19T18:59:29.904Z,2.48
2022-11-19T19:01:56.564Z,2.48
2022-11-19T19:04:23.451Z,2.60
2022-11-19T19:06:49.921Z,2.51
2022-11-19T19:09:19.606Z,2.54
2022-11-19T19:12:13.003Z,2.54
2022-11-19T19:14:41.573Z,2.67
2022-11-19T19:17:08.246Z,2.53
2022-11-19T19:19:35.065Z,2.61
2022-11-19T19:22:01.784Z,2.54
2022-11-19T19:24:28.684Z,2.57
2022-11-19T19:26:56.308Z,2.52
2022-11-19T19:29:22.936Z,2.55
2022-11-19T19:31:52.325Z,2.45
2022-11-19T19:34:19.035Z,2.50
2022-11-19T19:36:51.647Z,2.54
2022-11-19T19:39:19.784Z,2.62
2022-11-19T19:41:48.525Z,2.54
2022-11-19T19:44:15.029Z,2.45
2022-11-19T19:46:43.338Z,2.49
2022-11-19T19:49:09.851Z,2.50
2022-11-19T19:51:36.577Z,2.54
2022-11-19T19:54:03.208Z,2.59
2022-11-19T19:56:31.525Z,2.57
2022-11-19T19:58:59.299Z,2.65
2022-11-19T20:01:32.351Z,2.51
2022-11-19T20:04:07.592Z,2.46
2022-11-19T20:06:35.867Z,2.50
2022-11-19T20:09:09.187Z,2.50
2022-11-19T20:11:52.702Z,2.63
2022-11-19T20:14:19.580Z,2.62
2022-11-19T20:16:48.067Z,2.55
2022-11-19T20:19:14.596Z,2.54
2022-11-19T20:21:41.941Z,2.48
2022-11-19T20:24:12.626Z,2.50
2022-11-19T20:26:41.959Z,2.44
2022-11-19T20:29:11.589Z,2.49
2022-11-19T20:31:40.076Z,2.53
2022-11-19T20:34:07.353Z,2.52
2022-11-19T20:36:34.910Z,2.62
2022-11-19T20:39:01.640Z,2.54
2022-11-19T20:41:47.183Z,2.53
2022-11-19T20:44:22.837Z,2.53
2022-11-19T20:47:02.896Z,2.47
2022-11-19T20:49:33.389Z,2.57
2022-11-19T20:52:01.009Z,2.60
2022-11-19T20:54:28.200Z,2.58
2022-11-19T20:56:56.047Z,2.63
2022-11-19T20:59:24.706Z,2.62
2022-11-19T21:01:54.618Z,2.68
2022-11-19T21:04:23.670Z,2.73
2022-11-19T21:06:53.243Z,2.79
2022-11-19T21:09:20.519Z,2.76
2022-11-19T21:11:50.509Z,2.68
2022-11-19T21:14:18.573Z,2.65
2022-11-19T21:16:48.278Z,2.62
2022-11-19T21:19:15.879Z,2.54
2022-11-19T21:21:44.336Z,2.59
2022-11-19T21:24:12.697Z,2.70
2022-11-19T21:26:40.005Z,2.69
2022-11-19T21:29:07.155Z,2.72
2022-11-19T21:31:44.115Z,2.75
2022-11-19T21:34:17.337Z,2.70
2022-11-19T21:36:48.012Z,2.74
2022-11-19T21:39:17.274Z,2.70
2022-11-19T21:41:47.785Z,2.71
2022-11-19T21:44:19.779Z,2.80
2022-11-19T21:46:48.849Z,2.70
2022-11-19T21:49:15.458Z,2.86
2022-11-19T21:51:43.305Z,2.83
2022-11-19T21:54:09.713Z,2.81
2022-11-19T21:56:38.877Z,2.77
2022-11-19T21:59:06.393Z,2.77
2022-11-19T22:01:33.092Z,2.72
2022-11-19T22:03:59.418Z,2.73
2022-11-19T22:06:28.750Z,2.75
2022-11-19T22:08:54.952Z,2.76
2022-11-19T22:11:31.186Z,2.60
2022-11-19T22:14:07.721Z,2.61
2022-11-19T22:16:39.700Z,2.70
2022-11-19T22:19:12.391Z,2.76
2022-11-19T22:21:39.501Z,2.78
2022-11-19T22:24:06.090Z,2.72
2022-11-19T22:26:32.909Z,2.77
2022-11-19T22:28:59.155Z,2.73
2022-11-19T22:31:26.116Z,2.71
2022-11-19T22:33:53.113Z,2.78
2022-11-19T22:36:22.944Z,2.79
2022-11-19T22:38:50.968Z,2.73
2022-11-19T22:41:19.151Z,2.72
2022-11-19T22:43:45.938Z,2.78
2022-11-19T22:46:13.898Z,2.80
2022-11-19T22:48:41.057Z,2.62
2022-11-19T22:51:14.806Z,2.69
2022-11-19T22:53:42.173Z,2.73
2022-11-19T22:56:11.141Z,2.79
2022-11-19T22:58:38.503Z,2.87
2022-11-19T23:01:06.361Z,2.91
2022-11-19T23:03:32.737Z,2.84
2022-11-19T23:05:59.404Z,2.82
2022-11-19T23:08:25.753Z,2.88
2022-11-19T23:10:59.744Z,2.86
2022-11-19T23:13:31.242Z,2.81
2022-11-19T23:16:07.176Z,2.80
2022-11-19T23:18:47.446Z,2.72
2022-11-19T23:21:16.926Z,2.71
2022-11-19T23:23:43.274Z,2.70
2022-11-19T23:26:12.490Z,2.74
2022-11-19T23:28:42.433Z,2.75
2022-11-19T23:31:13.625Z,2.79
2022-11-19T23:33:40.577Z,2.76
2022-11-19T23:36:13.019Z,2.72
2022-11-19T23:38:40.429Z,2.74
2022-11-19T23:41:10.899Z,2.80
2022-11-19T23:43:37.954Z,2.85
2022-11-19T23:46:07.164Z,2.84
2022-11-19T23:48:34.258Z,2.87
2022-11-19T23:51:06.655Z,2.97
2022-11-19T23:53:33.261Z,2.97
2022-11-19T23:56:00.086Z,2.97
2022-11-19T23:58:26.731Z,2.93
